Time;durP1;ratioP1;P1;durP2;ratioP2;P2;SDS_P1;SDS_P2;PMS_P1;PMS_P2;Temp;Humidity;BMP_temperature;BMP_pressure;BME280_temperature;BME280_humidity;BME280_pressure;Samples;Min_cycle;Max_cycle;Signal;HPM_P1;HPM_P2
2022/05/24 00:00:28;;;;;;;5.53;3.83;;;;;;;23.71;45.74;99937.63;5015120;28;20870;-65
2022/05/24 00:02:54;;;;;;;5.60;3.77;;;;;;;23.73;45.66;99946.19;5013479;28;20051;-64
2022/05/24 00:05:22;;;;;;;5.18;3.47;;;;;;;23.70;45.63;99942.13;5014584;28;20305;-65
2022/05/24 00:07:47;;;;;;;6.35;4.07;;;;;;;23.71;45.58;99950.91;5018934;28;20594;-65
2022/05/24 00:10:19;;;;;;;5.78;3.38;;;;;;;23.71;45.74;99951.72;5013953;28;20033;-65
2022/05/24 00:12:45;;;;;;;5.93;3.63;;;;;;;23.71;45.72;99953.59;5032461;28;20384;-64
2022/05/24 00:15:19;;;;;;;6.25;3.53;;;;;;;23.67;45.66;99941.75;5016679;28;20034;-65
2022/05/24 00:17:52;;;;;;;6.18;3.90;;;;;;;23.65;45.75;99939.31;5012552;28;20069;-64
2022/05/24 00:20:18;;;;;;;5.28;3.33;;;;;;;23.66;45.71;99956.91;5015768;28;20699;-65
2022/05/24 00:22:44;;;;;;;6.63;3.42;;;;;;;23.68;45.62;99960.13;5014685;28;20037;-65
2022/05/24 00:25:09;;;;;;;5.47;3.72;;;;;;;23.69;45.68;99950.31;5015011;28;20045;-65
2022/05/24 00:27:35;;;;;;;8.00;3.90;;;;;;;23.68;45.40;99957.47;5014864;28;20403;-65
2022/05/24 00:30:01;;;;;;;5.60;3.83;;;;;;;23.65;45.67;99957.13;5013774;28;20045;-65
2022/05/24 00:32:27;;;;;;;6.40;3.88;;;;;;;23.63;45.73;99956.53;5016508;28;20125;-65
2022/05/24 00:34:52;;;;;;;5.38;3.50;;;;;;;23.64;45.55;99955.50;5016294;28;20042;-65
2022/05/24 00:37:22;;;;;;;4.55;3.38;;;;;;;23.63;45.76;99972.50;5017393;28;20077;-65
2022/05/24 00:39:48;;;;;;;5.53;3.40;;;;;;;23.65;45.64;99963.25;5015238;28;20075;-65
2022/05/24 00:42:24;;;;;;;8.00;3.70;;;;;;;23.62;45.69;99966.38;5015231;28;20045;-65
2022/05/24 00:45:01;;;;;;;4.78;3.33;;;;;;;23.62;45.47;99966.38;5029880;28;20625;-65
2022/05/24 00:47:39;;;;;;;6.10;3.70;;;;;;;23.63;45.48;99967.16;5016472;28;20120;-65
2022/05/24 00:50:15;;;;;;;7.38;3.83;;;;;;;23.56;45.66;99977.06;5014410;28;20546;-65
2022/05/24 00:52:50;;;;;;;5.97;3.42;;;;;;;23.55;45.64;99984.22;5011174;28;20037;-65
2022/05/24 00:55:22;;;;;;;4.47;3.40;;;;;;;23.54;45.62;99974.63;5014188;28;20033;-65
2022/05/24 00:58:25;;;;;;;6.97;3.72;;;;;;;23.56;45.66;99979.72;5013333;28;20047;-65
2022/05/24 01:00:51;;;;;;;4.93;3.28;;;;;;;23.54;45.76;99977.28;5010431;28;20059;-65
2022/05/24 01:03:17;;;;;;;5.47;3.00;;;;;;;23.53;45.46;99973.00;5015044;28;20038;-64
2022/05/24 01:05:43;;;;;;;4.82;3.60;;;;;;;23.48;45.43;99967.53;5016095;28;20037;-65
2022/05/24 01:08:10;;;;;;;4.43;3.10;;;;;;;23.49;45.64;99969.97;5015315;28;20049;-64
2022/05/24 01:10:44;;;;;;;4.97;3.28;;;;;;;23.45;45.62;99958.16;5015323;28;20033;-65
2022/05/24 01:13:30;;;;;;;4.90;3.25;;;;;;;23.45;45.73;99957.38;5013817;28;20030;-65
2022/05/24 01:15:55;;;;;;;6.40;3.30;;;;;;;23.36;45.61;99943.59;5010978;28;20633;-65
2022/05/24 01:18:24;;;;;;;5.95;3.53;;;;;;;23.51;45.50;99972.41;5014663;28;20033;-64
2022/05/24 01:20:58;;;;;;;5.85;3.38;;;;;;;23.42;45.53;99966.59;5016113;28;20038;-65
2022/05/24 01:23:30;;;;;;;7.25;3.53;;;;;;;23.46;45.59;99964.28;5014490;28;20081;-65
2022/05/24 01:26:03;;;;;;;5.50;3.08;;;;;;;23.43;45.61;99968.22;5026221;28;20037;-65
2022/05/24 01:28:41;;;;;;;5.28;3.28;;;;;;;23.44;45.62;99961.06;5014172;28;20064;-65
2022/05/24 01:31:08;;;;;;;5.22;2.95;;;;;;;23.41;45.63;99964.97;5011857;28;20033;-65
2022/05/24 01:36:21;;;;;;;4.47;3.50;;;;;;;23.38;45.77;99965.44;5015244;28;20619;-65
2022/05/24 01:38:52;;;;;;;4.60;3.05;;;;;;;23.33;45.98;99964.44;5014298;28;20187;-65
2022/05/24 01:41:23;;;;;;;3.67;3.00;;;;;;;23.37;45.65;99968.31;5010765;28;20099;-65
2022/05/24 01:43:52;;;;;;;4.28;3.00;;;;;;;23.41;45.70;99969.47;5015299;28;20033;-65
2022/05/24 01:46:22;;;;;;;3.20;2.75;;;;;;;23.36;45.59;99961.38;5009938;28;20049;-65
2022/05/24 01:48:53;;;;;;;4.90;3.00;;;;;;;23.36;45.63;99970.16;5014639;28;20037;-65
2022/05/24 01:51:24;;;;;;;6.78;3.17;;;;;;;23.35;45.69;99957.91;5014087;28;20499;-65
2022/05/24 01:53:54;;;;;;;5.68;3.50;;;;;;;23.36;45.73;99964.03;5014278;28;20490;-65
2022/05/24 01:56:25;;;;;;;5.32;2.72;;;;;;;23.34;45.53;99958.09;5013756;28;20037;-64
2022/05/24 01:58:54;;;;;;;4.75;3.53;;;;;;;23.32;45.94;99954.88;5013843;28;20049;-65
2022/05/24 02:01:37;;;;;;;4.78;3.20;;;;;;;23.29;45.76;99942.84;5013672;28;20851;-65
2022/05/24 02:04:04;;;;;;;5.50;3.17;;;;;;;23.27;45.67;99934.28;5012293;28;20038;-65
2022/05/24 02:06:30;;;;;;;4.20;2.88;;;;;;;23.24;45.80;99936.59;5012833;28;20041;-65
2022/05/24 02:08:56;;;;;;;6.38;2.90;;;;;;;23.31;45.68;99954.06;5009870;28;20480;-64
2022/05/24 02:11:27;;;;;;;8.32;3.83;;;;;;;23.25;45.74;99931.06;5013211;28;20029;-65
2022/05/24 02:14:21;;;;;;;5.03;2.90;;;;;;;23.29;45.53;99944.69;5013822;28;20041;-64
2022/05/24 02:17:05;;;;;;;5.20;3.08;;;;;;;23.21;45.99;99946.63;5010706;28;20387;-65
2022/05/24 02:19:35;;;;;;;7.68;2.85;;;;;;;23.26;46.02;99961.09;5013341;28;20490;-65
2022/05/24 02:22:07;;;;;;;4.15;2.75;;;;;;;23.28;45.69;99957.16;5011940;28;20052;-65
2022/05/24 02:24:32;;;;;;;3.53;2.58;;;;;;;23.23;45.74;99954.38;5011173;28;20064;-65
2022/05/24 02:26:58;;;;;;;4.70;3.25;;;;;;;23.21;45.68;99957.25;5014609;28;20041;-65
2022/05/24 02:29:24;;;;;;;4.70;2.60;;;;;;;23.24;45.99;99957.84;5010989;28;20042;-64
2022/05/24 02:31:50;;;;;;;5.05;3.00;;;;;;;23.18;45.97;99952.41;5015131;28;20074;-65
2022/05/24 02:34:16;;;;;;;6.57;3.47;;;;;;;23.21;45.89;99959.91;5013915;28;20127;-65
2022/05/24 02:36:42;;;;;;;5.00;3.40;;;;;;;23.21;45.63;99954.59;5014713;28;20805;-65
2022/05/24 02:39:07;;;;;;;6.13;3.13;;;;;;;23.15;45.73;99936.06;5012709;28;20393;-65
2022/05/24 02:41:38;;;;;;;5.20;2.90;;;;;;;23.18;46.01;99938.31;5010379;28;20041;-65
2022/05/24 02:44:13;;;;;;;7.82;2.95;;;;;;;23.19;45.76;99954.00;5010630;28;20124;-65
2022/05/24 02:46:42;;;;;;;4.15;3.08;;;;;;;23.21;45.74;99962.56;5014083;28;20103;-64
2022/05/24 02:49:08;;;;;;;5.72;3.40;;;;;;;23.16;45.77;99945.66;5012133;28;20034;-65
2022/05/24 02:51:37;;;;;;;4.18;2.92;;;;;;;23.17;45.79;99948.13;5013377;28;20025;-65
2022/05/24 02:54:05;;;;;;;4.38;2.88;;;;;;;23.17;45.77;99945.47;5016603;28;20120;-65
2022/05/24 02:56:31;;;;;;;6.07;3.33;;;;;;;23.16;45.86;99940.34;5019685;28;20033;-65
2022/05/24 02:58:56;;;;;;;2.92;2.63;;;;;;;23.17;45.80;99940.16;5015230;28;20042;-65
2022/05/24 03:01:25;;;;;;;4.57;3.13;;;;;;;23.17;46.03;99955.28;5014459;28;20041;-65
2022/05/24 03:03:52;;;;;;;7.20;2.80;;;;;;;23.18;45.71;99960.34;5019741;28;20034;-64
2022/05/24 03:06:20;;;;;;;4.78;3.03;;;;;;;23.16;45.93;99953.63;5016116;28;20041;-65
2022/05/24 03:14:17;;;;;;;4.63;3.05;;;;;;;23.12;46.05;99955.09;5011931;28;20099;-65
2022/05/24 03:16:52;;;;;;;5.20;3.30;;;;;;;23.13;45.95;99960.19;5017255;28;20495;-65
2022/05/24 03:19:21;;;;;;;4.75;3.00;;;;;;;23.16;45.58;99967.75;5018021;28;20037;-65
2022/05/24 03:21:46;;;;;;;4.70;3.47;;;;;;;23.11;45.80;99972.06;5013641;28;20034;-65
2022/05/24 03:24:12;;;;;;;4.53;3.30;;;;;;;23.07;45.98;99960.28;5016370;28;20050;-64
2022/05/24 03:26:38;;;;;;;5.57;3.00;;;;;;;23.07;45.88;99949.66;5015570;28;20059;-65
2022/05/24 03:29:05;;;;;;;7.22;3.60;;;;;;;23.10;45.98;99958.00;5017348;28;20052;-65
2022/05/24 03:31:32;;;;;;;5.75;3.55;;;;;;;23.10;46.06;99968.59;5016868;28;20051;-64
2022/05/24 03:34:00;;;;;;;5.68;3.65;;;;;;;23.10;45.98;99965.94;5015081;28;20559;-64
2022/05/24 03:36:27;;;;;;;8.25;3.83;;;;;;;23.08;46.05;99957.41;5018814;28;20498;-65
2022/05/24 03:38:53;;;;;;;8.88;3.80;;;;;;;23.09;45.74;99960.88;5015929;28;20063;-64
2022/05/24 03:41:18;;;;;;;5.68;3.45;;;;;;;23.12;45.69;99976.34;5011972;28;20033;-65
2022/05/24 03:43:44;;;;;;;8.25;4.00;;;;;;;23.08;46.05;99981.31;5015280;28;20042;-65
2022/05/24 03:46:11;;;;;;;5.70;4.00;;;;;;;23.10;45.93;99978.41;5015419;28;20033;-65
2022/05/24 03:48:38;;;;;;;7.60;4.40;;;;;;;23.09;45.72;99984.78;5017534;28;20029;-65
2022/05/24 03:51:04;;;;;;;7.85;3.80;;;;;;;23.03;45.92;99972.38;5014737;28;20076;-65
2022/05/24 03:53:30;;;;;;;7.30;4.07;;;;;;;23.03;45.80;99978.50;5017403;28;20030;-64
2022/05/24 03:55:56;;;;;;;6.22;4.05;;;;;;;23.05;46.11;99973.78;5013400;28;20064;-65
2022/05/24 03:58:24;;;;;;;6.75;4.85;;;;;;;23.03;45.86;99975.03;5016548;28;20044;-65
2022/05/24 04:00:50;;;;;;;9.27;4.85;;;;;;;23.06;46.01;99982.56;5014145;28;20114;-66
2022/05/24 04:03:16;;;;;;;7.82;3.95;;;;;;;23.06;45.98;99977.25;5033511;28;20452;-66
2022/05/24 04:05:46;;;;;;;5.70;3.90;;;;;;;23.03;45.92;99980.34;5015171;28;20102;-65
2022/05/24 04:08:14;;;;;;;6.80;4.35;;;;;;;23.03;46.21;99977.69;5014605;28;20041;-66
2022/05/24 04:10:40;;;;;;;7.60;4.53;;;;;;;23.04;45.74;99980.13;5014829;28;20582;-65
2022/05/24 04:13:06;;;;;;;8.10;4.53;;;;;;;23.03;45.89;99985.66;5015622;28;20108;-66
2022/05/24 04:15:31;;;;;;;6.85;4.70;;;;;;;23.04;46.19;99990.75;5014460;28;20040;-66
2022/05/24 04:17:57;;;;;;;7.55;4.30;;;;;;;23.00;46.13;99978.16;5012705;28;20041;-66
2022/05/24 04:20:25;;;;;;;7.10;4.72;;;;;;;22.91;45.88;99973.09;5013821;28;20022;-66
2022/05/24 04:22:52;;;;;;;7.07;3.97;;;;;;;23.01;45.94;99991.19;5011974;28;20053;-66
2022/05/24 04:25:18;;;;;;;7.68;4.70;;;;;;;23.01;46.28;99993.03;5010623;28;20038;-66
2022/05/24 04:27:43;;;;;;;8.82;4.60;;;;;;;23.03;46.01;99989.13;5015352;28;20033;-65
2022/05/24 04:30:11;;;;;;;37.75;34.38;;;;;;;23.04;46.05;99995.25;5012053;28;20045;-66
2022/05/24 04:32:36;;;;;;;5.80;3.95;;;;;;;23.01;46.17;100001.00;5015887;28;20351;-65
2022/05/24 04:35:03;;;;;;;8.43;4.43;;;;;;;23.03;45.87;100006.91;5015340;28;20549;-65
2022/05/24 04:37:29;;;;;;;7.35;4.45;;;;;;;23.06;45.74;99998.50;5011379;28;20480;-65
2022/05/24 04:39:54;;;;;;;6.18;4.50;;;;;;;23.04;45.87;100000.56;5013929;28;20045;-65
2022/05/24 04:42:20;;;;;;;8.65;5.00;;;;;;;23.03;45.58;100009.56;5015037;28;20045;-65
2022/05/24 04:44:47;;;;;;;10.23;4.80;;;;;;;22.97;45.89;100005.91;5012566;28;20041;-65
2022/05/24 04:47:13;;;;;;;7.60;4.30;;;;;;;22.99;45.85;100008.38;5015305;28;20064;-65
2022/05/24 04:49:42;;;;;;;7.40;4.60;;;;;;;23.00;45.96;100008.16;5016510;28;20045;-65
2022/05/24 04:52:12;;;;;;;8.50;4.85;;;;;;;23.02;45.96;100016.72;5027870;28;20128;-65
2022/05/24 04:54:39;;;;;;;9.23;5.05;;;;;;;23.00;46.10;100002.03;5012721;28;20038;-65
2022/05/24 04:57:06;;;;;;;6.97;4.80;;;;;;;23.00;45.92;100010.00;5016570;28;20158;-65
2022/05/24 04:59:32;;;;;;;11.27;5.50;;;;;;;23.01;46.05;100007.13;5016578;28;20110;-65
2022/05/24 05:01:57;;;;;;;8.15;4.80;;;;;;;23.01;45.98;100008.97;5014544;28;20046;-65
2022/05/24 05:04:24;;;;;;;11.23;4.82;;;;;;;22.99;45.99;100008.38;5015534;28;20051;-65
2022/05/24 05:06:50;;;;;;;7.70;4.38;;;;;;;23.01;46.08;100015.09;5007725;28;20547;-65
2022/05/24 05:09:17;;;;;;;8.32;4.68;;;;;;;22.93;45.91;99996.78;5014351;28;20045;-65
2022/05/24 05:11:43;;;;;;;9.07;4.70;;;;;;;23.00;46.20;100018.78;5013518;28;20029;-65
2022/05/24 05:14:10;;;;;;;6.72;4.35;;;;;;;22.99;45.78;100024.31;5032630;28;20095;-65
2022/05/24 05:16:36;;;;;;;6.55;4.50;;;;;;;22.96;46.28;100027.38;5014487;28;20041;-65
2022/05/24 05:19:07;;;;;;;7.00;4.60;;;;;;;22.97;46.28;100031.66;5013850;28;20756;-65
2022/05/24 05:21:36;;;;;;;8.55;4.25;;;;;;;22.99;46.20;100032.28;5013065;28;20044;-65
2022/05/24 05:24:03;;;;;;;7.90;4.65;;;;;;;22.97;46.23;100040.44;5014623;28;20049;-65
2022/05/24 05:26:29;;;;;;;7.13;4.57;;;;;;;22.91;45.90;100036.81;5013546;28;20142;-65
2022/05/24 05:28:54;;;;;;;7.07;4.68;;;;;;;22.95;46.13;100047.00;5014924;28;20041;-65
2022/05/24 05:31:25;;;;;;;8.77;4.80;;;;;;;22.97;45.90;100050.25;5012846;28;20033;-65
2022/05/24 05:33:51;;;;;;;7.15;4.18;;;;;;;22.97;46.04;100052.91;5016863;28;20396;-65
2022/05/24 05:36:18;;;;;;;8.13;4.55;;;;;;;22.94;45.93;100054.16;5009136;28;20042;-65
2022/05/24 05:38:46;;;;;;;9.10;4.63;;;;;;;22.92;45.97;100066.84;5014567;28;20651;-65
2022/05/24 05:41:17;;;;;;;8.95;4.53;;;;;;;22.95;46.33;100082.31;5010393;28;20049;-65
2022/05/24 05:43:43;;;;;;;6.55;4.35;;;;;;;22.94;46.08;100072.75;5014036;28;20474;-65
2022/05/24 05:46:09;;;;;;;6.80;4.78;;;;;;;22.95;46.20;100068.25;5013232;28;20045;-65
2022/05/24 05:48:36;;;;;;;6.13;4.40;;;;;;;22.91;46.09;100054.59;5014631;28;20471;-65
2022/05/24 05:51:01;;;;;;;6.97;4.10;;;;;;;22.93;46.18;100060.50;5013943;28;20042;-65
2022/05/24 05:53:27;;;;;;;6.78;4.28;;;;;;;22.96;46.31;100061.91;5013967;28;20134;-65
2022/05/24 05:55:53;;;;;;;6.70;4.32;;;;;;;22.96;45.99;100056.59;5008785;28;20037;-65
2022/05/24 05:58:19;;;;;;;7.25;4.63;;;;;;;22.92;46.11;100054.38;5015526;28;20029;-65
2022/05/24 06:00:47;;;;;;;9.40;4.70;;;;;;;22.94;46.26;100063.97;5012692;28;20499;-65
2022/05/24 06:03:12;;;;;;;7.10;4.15;;;;;;;22.92;45.95;100070.31;5014647;28;20069;-65
2022/05/24 06:05:38;;;;;;;12.10;5.10;;;;;;;22.97;46.00;100074.13;5010082;28;20517;-66
2022/05/24 06:08:04;;;;;;;6.82;4.30;;;;;;;22.98;45.97;100071.28;5014221;28;20092;-65
2022/05/24 06:10:30;;;;;;;9.35;4.82;;;;;;;22.97;46.27;100072.28;5009365;28;20044;-65
2022/05/24 06:12:57;;;;;;;9.75;4.97;;;;;;;22.95;45.91;100065.59;5014960;28;20037;-65
2022/05/24 06:15:25;;;;;;;8.45;5.30;;;;;;;22.94;46.15;100067.44;5028293;28;20512;-65
2022/05/24 06:17:52;;;;;;;11.15;5.28;;;;;;;22.97;45.79;100076.78;5012834;28;20061;-65
2022/05/24 06:20:23;;;;;;;7.63;5.00;;;;;;;22.95;45.85;100065.59;5013681;28;20040;-65
2022/05/24 06:22:52;;;;;;;8.82;4.60;;;;;;;22.98;45.70;100054.53;5013710;28;20045;-65
2022/05/24 06:25:19;;;;;;;13.40;5.55;;;;;;;22.93;45.69;100060.50;5011638;28;20064;-65
2022/05/24 06:27:44;;;;;;;7.68;5.35;;;;;;;22.97;45.99;100067.00;5017639;28;20061;-65
2022/05/24 06:30:11;;;;;;;6.70;4.32;;;;;;;22.98;45.64;100073.09;5017860;28;20043;-65
2022/05/24 06:32:37;;;;;;;8.27;5.57;;;;;;;22.91;45.81;100065.22;5016944;28;20037;-65
2022/05/24 06:35:05;;;;;;;9.35;5.90;;;;;;;22.99;45.87;100080.88;5021739;28;20080;-65
2022/05/24 06:37:31;;;;;;;10.55;5.68;;;;;;;22.94;46.03;100090.50;5015278;28;20038;-65
2022/05/24 06:39:56;;;;;;;8.48;5.50;;;;;;;22.89;45.80;100088.50;5017037;28;20056;-65
2022/05/24 06:42:22;;;;;;;9.48;5.15;;;;;;;22.95;45.99;100092.13;5030497;28;20172;-65
2022/05/24 06:44:49;;;;;;;8.40;5.40;;;;;;;22.94;45.70;100093.97;5016635;28;20134;-65
2022/05/24 06:47:15;;;;;;;11.65;5.93;;;;;;;22.94;45.95;100095.81;5016246;28;20483;-65
2022/05/24 06:49:41;;;;;;;11.43;5.97;;;;;;;22.89;46.03;100121.19;5016687;28;20092;-65
2022/05/24 06:52:08;;;;;;;12.13;6.32;;;;;;;22.91;46.06;100128.94;5017292;28;20136;-65
2022/05/24 06:54:35;;;;;;;7.85;5.80;;;;;;;22.92;45.63;100135.88;5015828;28;20998;-65
2022/05/24 06:57:02;;;;;;;8.20;5.00;;;;;;;22.97;45.74;100130.72;5018400;28;20048;-65
2022/05/24 07:02:27;;;;;;;13.18;5.85;;;;;;;22.93;45.93;100116.25;5017895;28;20408;-65
2022/05/24 07:05:03;;;;;;;11.98;6.18;;;;;;;22.97;45.82;100121.94;5016487;28;20797;-65
2022/05/24 07:07:30;;;;;;;8.73;6.00;;;;;;;22.90;45.67;100128.13;5011836;28;20918;-65
2022/05/24 07:09:56;;;;;;;8.45;5.38;;;;;;;22.79;45.73;100118.16;5012176;28;20037;-65
2022/05/24 07:12:23;;;;;;;11.88;6.22;;;;;;;22.94;45.48;100139.13;5015559;28;20026;-65
2022/05/24 07:14:49;;;;;;;12.38;6.28;;;;;;;22.96;45.67;100141.53;5009724;28;20148;-65
2022/05/24 07:17:17;;;;;;;11.10;5.95;;;;;;;22.95;45.90;100150.53;5012136;28;20849;-65
2022/05/24 07:19:43;;;;;;;10.32;5.53;;;;;;;22.94;45.65;100157.69;5011120;28;20041;-65
2022/05/24 07:28:35;;;;;;;18.92;6.07;;;;;;;22.35;45.80;100079.31;4989061;28;20483;-89
2022/05/24 07:31:09;;;;;;;11.18;5.45;;;;;;;22.95;45.81;100169.13;4987301;28;20061;-88
2022/05/24 07:33:43;;;;;;;12.20;6.30;;;;;;;22.07;46.30;100041.72;4992214;28;20028;-83
2022/05/24 07:36:08;;;;;;;15.68;6.93;;;;;;;22.84;46.61;100165.34;4976269;28;20034;-80
2022/05/24 07:38:34;;;;;;;14.25;6.88;;;;;;;22.55;46.78;100134.88;4985701;28;20030;-83
2022/05/24 07:46:28;;;;;;;12.55;5.75;;;;;;;22.93;46.38;100174.66;5003796;28;20049;-82
2022/05/24 07:48:54;;;;;;;11.85;5.82;;;;;;;22.96;45.98;100176.88;4989458;28;20034;-83
2022/05/24 07:51:20;;;;;;;8.82;6.05;;;;;;;22.95;45.97;100177.91;4966004;28;20045;-83
2022/05/24 07:53:45;;;;;;;10.07;6.03;;;;;;;22.86;46.00;100158.78;4973498;28;20440;-82
2022/05/24 07:56:13;;;;;;;8.00;4.95;;;;;;;22.96;45.53;100171.56;4978943;28;20247;-82
2022/05/24 07:58:39;;;;;;;9.98;5.30;;;;;;;23.01;45.51;100176.25;4988581;28;20618;-83
2022/05/24 08:01:04;;;;;;;7.28;5.00;;;;;;;23.02;45.54;100183.19;5008249;28;20042;-83
2022/05/24 08:03:30;;;;;;;13.00;5.38;;;;;;;23.03;45.75;100188.28;4985298;28;20154;-82
2022/05/24 08:05:55;;;;;;;9.75;5.63;;;;;;;23.03;45.62;100188.28;4976921;28;20130;-84
2022/05/24 08:08:21;;;;;;;12.20;5.63;;;;;;;22.85;45.67;100165.13;5017369;28;20659;-83
2022/05/24 08:10:47;;;;;;;10.93;5.32;;;;;;;23.02;45.59;100193.81;4996055;28;20046;-84
2022/05/24 08:13:15;;;;;;;10.93;6.00;;;;;;;23.03;45.66;100198.91;4977674;28;20451;-84
2022/05/24 08:15:42;;;;;;;9.20;5.30;;;;;;;22.95;45.71;100201.00;4983997;28;20030;-83
2022/05/24 08:18:08;;;;;;;9.02;5.63;;;;;;;22.85;46.01;100189.03;4984851;28;20127;-85
2022/05/24 08:20:34;;;;;;;8.38;5.72;;;;;;;23.05;45.63;100218.09;4993330;28;20038;-86
2022/05/24 08:23:01;;;;;;;11.65;5.93;;;;;;;23.05;45.50;100214.63;5004370;28;20049;-85
2022/05/24 08:25:28;;;;;;;11.05;6.88;;;;;;;23.05;45.65;100214.63;5000420;28;20034;-86
2022/05/24 08:27:55;;;;;;;10.77;6.18;;;;;;;23.08;45.64;100211.53;4994890;28;20069;-86
2022/05/24 08:30:22;;;;;;;9.95;5.78;;;;;;;23.06;45.73;100214.41;5003885;28;20049;-86
2022/05/24 08:32:48;;;;;;;8.93;5.32;;;;;;;23.06;45.69;100221.56;4971407;28;20026;-86
2022/05/24 08:35:16;;;;;;;11.82;5.32;;;;;;;23.09;45.79;100229.09;4988233;28;20073;-86
2022/05/24 08:37:43;;;;;;;12.65;6.13;;;;;;;23.09;45.71;100219.28;4989475;28;20928;-86
2022/05/24 08:40:11;;;;;;;10.05;5.45;;;;;;;23.17;45.42;100216.38;4953571;28;20040;-83
2022/05/24 08:43:01;;;;;;;8.20;5.47;;;;;;;23.25;45.30;100220.59;4966364;28;20036;-82
2022/05/24 08:48:41;;;;;;;7.10;5.57;;;;;;;23.43;44.80;100188.75;5008386;28;20130;-86
2022/05/24 08:51:27;;;;;;;9.40;4.80;;;;;;;23.61;44.56;100206.59;4973930;28;20050;-83
2022/05/24 08:53:56;;;;;;;6.90;4.43;;;;;;;23.78;44.53;100217.47;5013853;28;20048;-85
2022/05/24 08:56:59;;;;;;;8.65;5.75;;;;;;;23.88;44.33;100228.44;4965395;28;20191;-83
2022/05/24 08:59:49;;;;;;;9.40;5.10;;;;;;;23.94;44.35;100219.56;4980778;28;20073;-83
2022/05/24 09:02:14;;;;;;;9.32;4.60;;;;;;;23.95;44.32;100223.84;4969598;28;20097;-82
2022/05/24 09:04:40;;;;;;;7.68;5.63;;;;;;;23.77;44.21;100207.88;4963467;28;20177;-83
2022/05/24 09:07:13;;;;;;;8.73;5.80;;;;;;;23.88;43.60;100209.81;4955335;28;20056;-81
2022/05/24 09:09:48;;;;;;;12.60;5.65;;;;;;;24.05;43.57;100231.28;4982490;28;20124;-83
2022/05/24 09:12:51;;;;;;;8.65;5.65;;;;;;;24.07;43.31;100240.69;4952818;28;20072;-80
2022/05/24 09:15:48;;;;;;;9.80;5.97;;;;;;;24.08;43.46;100233.53;4984039;28;20132;-84
2022/05/24 09:18:17;;;;;;;7.63;5.57;;;;;;;24.13;43.42;100249.63;4973064;28;22310;-84
2022/05/24 09:20:44;;;;;;;11.07;5.68;;;;;;;24.15;43.27;100236.09;4981790;28;20377;-80
2022/05/24 09:23:30;;;;;;;9.70;5.20;;;;;;;24.22;42.99;100250.94;4968944;28;20541;-81
2022/05/24 09:26:08;;;;;;;8.27;5.25;;;;;;;24.24;42.94;100243.56;4977852;28;20034;-82
2022/05/24 09:29:07;;;;;;;10.70;5.78;;;;;;;24.23;42.81;100255.22;4952748;28;20039;-85
2022/05/24 09:31:46;;;;;;;9.02;5.63;;;;;;;24.01;43.17;100232.78;4995184;28;20041;-81
2022/05/24 09:34:27;;;;;;;7.77;5.13;;;;;;;24.00;43.30;100247.09;4950587;28;20038;-83
2022/05/24 09:36:57;;;;;;;8.00;5.40;;;;;;;24.00;43.70;100274.50;4996684;28;20463;-79
2022/05/24 09:39:31;;;;;;;9.98;5.53;;;;;;;23.97;43.66;100284.78;4970189;28;20072;-79
2022/05/24 09:42:04;;;;;;;8.82;5.20;;;;;;;24.03;43.28;100286.56;4977211;28;20034;-81
2022/05/24 09:44:59;;;;;;;8.52;4.78;;;;;;;24.02;42.99;100298.22;4966126;28;22042;-84
2022/05/24 09:47:33;;;;;;;6.78;4.85;;;;;;;24.05;43.01;100311.06;4996035;28;20647;-82
2022/05/24 09:50:21;;;;;;;8.57;4.70;;;;;;;24.08;42.32;100305.34;4947896;28;20150;-81
2022/05/24 09:53:02;;;;;;;8.20;3.90;;;;;;;24.09;42.33;100315.75;4997730;28;20034;-81
2022/05/24 09:55:38;;;;;;;6.80;3.97;;;;;;;24.06;42.71;100313.53;4945364;28;21861;-80
2022/05/24 09:58:26;;;;;;;8.80;4.00;;;;;;;24.06;42.94;100316.22;4979288;28;20042;-82
2022/05/24 10:00:59;;;;;;;7.88;4.53;;;;;;;24.14;42.86;100308.97;4965599;28;20041;-82
2022/05/24 10:03:28;;;;;;;7.30;3.90;;;;;;;24.17;42.65;100306.66;4977490;28;20046;-85
2022/05/24 10:06:07;;;;;;;5.65;3.83;;;;;;;24.18;42.73;100302.16;4951576;28;20034;-79
2022/05/24 10:08:43;;;;;;;7.30;3.92;;;;;;;24.06;42.64;100288.78;4995134;28;20041;-80
2022/05/24 10:11:20;;;;;;;6.72;3.88;;;;;;;24.25;42.71;100310.91;4968236;28;20473;-79
2022/05/24 10:14:05;;;;;;;7.88;4.03;;;;;;;24.06;43.23;100302.09;4994675;28;20053;-80
2022/05/24 10:16:50;;;;;;;4.82;3.95;;;;;;;23.99;43.43;100303.97;4988811;28;20057;-81
2022/05/24 10:19:39;;;;;;;7.10;4.05;;;;;;;24.02;43.62;100324.81;4973516;28;20207;-81
2022/05/24 10:22:23;;;;;;;9.50;3.75;;;;;;;24.20;43.28;100329.34;4994205;28;20089;-80
2022/05/24 10:25:10;;;;;;;7.28;3.97;;;;;;;24.15;43.42;100303.41;4954000;28;20650;-81
2022/05/24 10:27:42;;;;;;;4.22;3.25;;;;;;;24.31;43.24;100336.63;4993099;28;20081;-78
2022/05/24 10:30:19;;;;;;;5.38;3.40;;;;;;;24.38;43.06;100334.72;4947266;28;20121;-79
2022/05/24 10:38:56;;;;;;;4.32;3.38;;;;;;;24.40;43.21;100372.56;4996847;28;20021;-80
2022/05/24 10:41:26;;;;;;;4.95;3.70;;;;;;;24.46;43.30;100402.81;4959900;28;20101;-78
2022/05/24 10:43:55;;;;;;;6.05;3.33;;;;;;;24.53;42.96;100395.56;4965086;28;20117;-79
2022/05/24 10:46:46;;;;;;;5.30;3.60;;;;;;;24.56;42.85;100411.09;4946724;28;20042;-80
2022/05/24 10:49:33;;;;;;;7.60;3.33;;;;;;;24.56;42.95;100405.75;4973568;28;20048;-79
2022/05/24 10:52:10;;;;;;;3.63;3.22;;;;;;;24.57;42.83;100408.22;4981856;28;20030;-81
2022/05/24 10:54:47;;;;;;;5.32;3.20;;;;;;;24.49;42.79;100403.19;4952534;28;20037;-84
2022/05/24 10:57:18;;;;;;;3.92;2.92;;;;;;;24.59;42.79;100418.63;4999696;28;20038;-82
2022/05/24 10:59:49;;;;;;;3.40;3.00;;;;;;;24.55;42.79;100412.13;4971672;28;20058;-81
2022/05/24 11:02:32;;;;;;;4.53;3.03;;;;;;;24.49;42.47;100397.06;4995379;28;20049;-81
2022/05/24 11:05:11;;;;;;;3.33;2.63;;;;;;;24.39;42.84;100389.56;4953315;28;20038;-81
2022/05/24 11:07:37;;;;;;;3.85;2.90;;;;;;;24.44;43.10;100408.38;4999908;28;20038;-80
2022/05/24 11:10:12;;;;;;;4.32;2.90;;;;;;;24.43;43.11;100413.91;4968194;28;20129;-80
2022/05/24 11:12:56;;;;;;;3.10;2.60;;;;;;;24.43;43.08;100411.25;4979687;28;20042;-81
2022/05/24 11:15:32;;;;;;;4.78;3.13;;;;;;;24.33;43.10;100395.78;4955170;28;20041;-81
2022/05/24 11:18:19;;;;;;;2.90;2.58;;;;;;;24.31;42.87;100392.53;4986442;28;20037;-82
2022/05/24 11:21:10;;;;;;;3.40;2.80;;;;;;;24.44;42.81;100421.66;4977720;28;20053;-83
2022/05/24 11:23:58;;;;;;;4.47;2.58;;;;;;;24.37;43.03;100404.94;4986316;28;20030;-83
2022/05/24 11:26:28;;;;;;;3.58;2.50;;;;;;;24.39;42.98;100417.00;4984289;28;20093;-83
2022/05/24 11:28:58;;;;;;;4.15;2.65;;;;;;;24.33;42.85;100404.56;4966629;28;20034;-84
2022/05/24 11:31:30;;;;;;;5.75;2.95;;;;;;;24.42;42.69;100437.06;4942934;28;20047;-82
2022/05/24 11:33:57;;;;;;;4.13;2.55;;;;;;;24.40;42.95;100439.91;4976968;28;20077;-83
2022/05/24 11:36:41;;;;;;;4.15;2.70;;;;;;;24.34;42.74;100432.81;4961815;28;20038;-83
2022/05/24 11:39:17;;;;;;;3.45;2.53;;;;;;;24.42;42.86;100450.34;4966756;28;20050;-83
2022/05/24 11:41:43;;;;;;;3.97;2.70;;;;;;;24.30;42.82;100438.78;4939659;28;20130;-83
2022/05/24 11:44:44;;;;;;;6.57;2.85;;;;;;;24.40;42.90;100460.38;4957807;28;20070;-83
2022/05/24 11:47:37;;;;;;;3.08;2.50;;;;;;;24.37;43.08;100461.63;4879183;29;20055;-84
2022/05/24 11:50:31;;;;;;;3.80;2.63;;;;;;;24.34;42.81;100459.41;4955424;28;20954;-84
2022/05/24 11:53:05;;;;;;;3.97;2.40;;;;;;;24.38;42.94;100462.44;4939325;28;20037;-86
2022/05/24 11:55:53;;;;;;;2.97;2.30;;;;;;;24.40;42.80;100469.19;4957750;28;20052;-84
2022/05/24 11:58:21;;;;;;;3.25;2.20;;;;;;;24.38;42.92;100473.09;4988556;28;20058;-84
2022/05/24 12:01:16;;;;;;;3.47;2.35;;;;;;;24.33;42.98;100465.78;4942553;28;20636;-87
2022/05/24 12:09:54;;;;;;;3.08;2.30;;;;;;;24.38;43.07;100489.88;4968813;28;20134;-90
2022/05/24 12:12:41;;;;;;;2.65;2.40;;;;;;;24.29;43.11;100485.88;4935328;28;20852;-89
2022/05/24 12:15:35;;;;;;;4.82;2.45;;;;;;;24.34;43.07;100509.16;4934258;28;20057;-89
2022/05/24 12:18:00;;;;;;;5.30;2.30;;;;;;;24.35;43.01;100500.16;4974181;28;20037;-89
2022/05/24 12:20:34;;;;;;;2.85;2.30;;;;;;;24.34;43.14;100503.84;4986708;28;20034;-88
2022/05/24 12:23:06;;;;;;;3.10;2.33;;;;;;;24.36;42.93;100496.44;4940136;28;20043;-90